Flight Track Log - Related Links

Times and Time Zones

All times are in EDT time to prevent confusion due to time zone crossing. See the AAL1805 flight status page for this flight to view local times or setup timezone preferences in your user account.

Time Position Orientation Groundspeed Altitude Reporting Facility
EDT Latitude Longitude Course Direction KTS MPH feet Rate Location/Type
Mon 07:21:01 PM 25.7789 -80.2000 145° Southeast 239 275 2,600  Level Miami Center
Mon 07:22:00 PM 25.5067 -80.0407 153° Southeast  Level Estimated
Mon 07:22:46 PM 25.6992 -80.1219 139° Southeast 265 305 6,400  Level Miami Center
Mon 07:23:00 PM 25.4103 -79.9578 146° Southeast  Level Estimated
Mon 07:24:00 PM 25.5792 -80.0192 153° Southeast  Level Estimated
Mon 07:24:00 PM 25.3140 -79.8750 150° Southeast  Level Estimated
Mon 07:24:46 PM 25.5408 -80.1106 153° Southeast 276 318 8,300  Level Miami Center
Mon 07:25:00 PM 25.1921 -79.8812 183° South  Level FlightAware Approximate
Mon 07:25:46 PM 25.4644 -80.0694 154° Southeast 292 336 11,400  Level Miami Center
Mon 07:26:00 PM 25.0961 -79.7981 145° Southeast  Level Estimated
Mon 07:26:46 PM 25.3775 -80.0281 157° South 303 349 13,300  Level Miami Center
Mon 07:28:00 PM 25.2551 -79.9490 150° Southeast  Level FlightAware Approximate
Mon 07:28:46 PM 25.1939 -79.9153 150° Southeast 364 419 17,600  Level Miami Center
Mon 07:29:46 PM 25.0992 -79.8442 146° Southeast 399 459 20,000 2,100 Climbing Miami Center
Mon 07:30:46 PM 25.0003 -79.7753 148° Southeast 415 478 21,800 1,750 Climbing Miami Center
Mon 07:31:46 PM 24.8931 -79.7019 148° Southeast 435 501 23,500 1,900 Climbing Miami Center
Mon 07:32:46 PM 24.7881 -79.6217 145° Southeast 452 520 25,600 1,950 Climbing Miami Center
Mon 07:33:46 PM 24.6789 -79.5458 148° Southeast 457 526 27,400 1,525 Climbing Miami Center
Mon 07:35:00 PM 24.5534 -79.4522 149° Southeast  Level FlightAware Approximate
Mon 07:36:46 PM 24.3444 -79.3108 142° Southeast 479 551 31,700  Level Miami Center
Mon 07:38:00 PM 24.2272 -79.2094 142° Southeast  Level Estimated
Mon 07:38:46 PM 24.1211 -79.1561 142° Southeast 479 551 34,400  Level Miami Center
Mon 07:40:00 PM 23.9980 -79.0649 142° Southeast  Level FlightAware Approximate
Mon 07:42:00 PM 23.8501 -78.9374 142° Southeast  Level FlightAware Approximate
Mon 07:47:00 PM 23.3315 -78.4932 142° Southeast  Level FlightAware Approximate
Mon 07:48:00 PM 23.2362 -78.4120 142° Southeast  Level FlightAware Approximate
Mon 07:49:00 PM 23.1407 -78.3309 142° Southeast  Level FlightAware Approximate
Mon 07:50:00 PM 23.0453 -78.2499 142° Southeast  Level FlightAware Approximate
Mon 07:51:00 PM 22.9498 -78.1691 142° Southeast  Level FlightAware Approximate
Mon 07:52:00 PM 22.8542 -78.0883 142° Southeast  Level FlightAware Approximate
Mon 07:53:00 PM 22.7587 -78.0077 142° Southeast  Level FlightAware Approximate
Mon 07:54:00 PM 22.6630 -77.9272 142° Southeast  Level FlightAware Approximate
Mon 07:55:00 PM 22.5674 -77.8467 142° Southeast  Level FlightAware Approximate
Mon 07:56:00 PM 22.4716 -77.7664 142° Southeast  Level FlightAware Approximate
Mon 07:57:00 PM 22.3759 -77.6863 142° Southeast  Level FlightAware Approximate
Mon 07:58:00 PM 22.2801 -77.6062 142° Southeast  Level FlightAware Approximate
Mon 07:59:00 PM 22.1843 -77.5262 142° Southeast  Level FlightAware Approximate
Mon 08:00:00 PM 22.0884 -77.4464 142° Southeast  Level FlightAware Approximate
Mon 08:01:00 PM 21.9925 -77.3666 142° Southeast  Level FlightAware Approximate
Mon 08:02:00 PM 21.8966 -77.2870 142° Southeast  Level FlightAware Approximate
Mon 08:03:00 PM 21.8006 -77.2075 142° Southeast  Level FlightAware Approximate
Mon 08:04:00 PM 21.7046 -77.1280 142° Southeast  Level FlightAware Approximate
Mon 08:05:00 PM 21.6086 -77.0487 142° Southeast  Level FlightAware Approximate
Mon 08:06:00 PM 21.5125 -76.9695 143° Southeast  Level FlightAware Approximate
Mon 08:07:00 PM 21.4163 -76.8904 143° Southeast  Level FlightAware Approximate
Mon 08:08:00 PM 21.3202 -76.8114 143° Southeast  Level FlightAware Approximate
Mon 08:09:00 PM 21.2240 -76.7325 143° Southeast  Level FlightAware Approximate
Mon 08:10:00 PM 21.1277 -76.6537 143° Southeast  Level FlightAware Approximate
Mon 08:11:00 PM 21.0315 -76.5750 143° Southeast  Level FlightAware Approximate
Mon 08:12:00 PM 20.9351 -76.4964 143° Southeast  Level FlightAware Approximate
Mon 08:13:00 PM 20.8388 -76.4179 143° Southeast  Level FlightAware Approximate
Mon 08:14:00 PM 20.7424 -76.3395 143° Southeast  Level FlightAware Approximate
Mon 08:15:00 PM 20.6460 -76.2612 143° Southeast  Level FlightAware Approximate
Mon 08:16:00 PM 20.5495 -76.1830 143° Southeast  Level FlightAware Approximate
Mon 08:17:00 PM 20.4531 -76.1049 143° Southeast  Level FlightAware Approximate
Mon 08:18:00 PM 20.3565 -76.0269 143° Southeast  Level FlightAware Approximate
Mon 08:19:00 PM 20.2600 -75.9490 143° Southeast  Level FlightAware Approximate
Mon 08:20:00 PM 20.1634 -75.8712 143° Southeast  Level FlightAware Approximate
Mon 08:21:00 PM 20.0667 -75.7935 143° Southeast  Level FlightAware Approximate
Mon 08:22:00 PM 19.9701 -75.7159 143° Southeast  Level FlightAware Approximate
Mon 08:23:00 PM 19.8734 -75.6384 143° Southeast  Level FlightAware Approximate
Mon 08:24:00 PM 19.7767 -75.5610 143° Southeast  Level FlightAware Approximate
Mon 08:25:00 PM 19.6799 -75.4836 143° Southeast  Level FlightAware Approximate
Mon 08:26:00 PM 19.5831 -75.4064 143° Southeast  Level FlightAware Approximate
Mon 08:27:00 PM 19.4863 -75.3292 143° Southeast  Level FlightAware Approximate
Mon 08:28:00 PM 19.3894 -75.2522 143° Southeast  Level FlightAware Approximate
Mon 08:29:00 PM 19.2925 -75.1752 143° Southeast  Level FlightAware Approximate
Mon 08:30:00 PM 19.1956 -75.0984 143° Southeast  Level FlightAware Approximate
Mon 08:31:00 PM 19.0987 -75.0216 143° Southeast  Level FlightAware Approximate
Mon 08:32:00 PM 19.0024 -74.9455 143° Southeast  Level FlightAware Approximate
Mon 08:33:00 PM 18.9061 -74.8694 143° Southeast  Level FlightAware Approximate
Mon 08:34:00 PM 18.8097 -74.7935 143° Southeast  Level FlightAware Approximate
Mon 08:35:00 PM 18.7133 -74.7176 143° Southeast  Level FlightAware Approximate
Mon 08:36:00 PM 18.6168 -74.6421 143° Southeast  Level FlightAware Approximate
Mon 08:37:00 PM 18.5202 -74.5666 143° Southeast  Level FlightAware Approximate
Mon 08:38:00 PM 18.4236 -74.4911 143° Southeast  Level FlightAware Approximate
Mon 08:39:00 PM 18.3270 -74.4158 143° Southeast  Level FlightAware Approximate
Mon 08:40:00 PM 18.2303 -74.3405 144° Southeast  Level FlightAware Approximate
Mon 08:41:00 PM 18.1336 -74.2654 144° Southeast  Level FlightAware Approximate
Mon 08:42:00 PM 18.0369 -74.1903 144° Southeast  Level FlightAware Approximate
Mon 08:43:00 PM 17.9402 -74.1153 144° Southeast  Level FlightAware Approximate
Mon 08:44:00 PM 17.8434 -74.0404 144° Southeast  Level FlightAware Approximate
Mon 08:45:00 PM 17.7466 -73.9655 144° Southeast  Level FlightAware Approximate
Mon 08:46:00 PM 17.6502 -73.8902 143° Southeast  Level FlightAware Approximate
Mon 08:47:00 PM 17.5547 -73.8137 143° Southeast  Level FlightAware Approximate
Mon 08:48:00 PM 17.4591 -73.7373 143° Southeast  Level FlightAware Approximate
Mon 08:49:00 PM 17.3635 -73.6609 143° Southeast  Level FlightAware Approximate
Mon 08:50:00 PM 17.2678 -73.5847 143° Southeast  Level FlightAware Approximate
Mon 08:51:00 PM 17.1721 -73.5085 143° Southeast  Level FlightAware Approximate
Mon 08:52:00 PM 17.0764 -73.4324 143° Southeast  Level FlightAware Approximate
Mon 08:53:00 PM 16.9800 -73.3558 143° Southeast  Level FlightAware Approximate
Mon 08:54:00 PM 16.8835 -73.2793 143° Southeast  Level FlightAware Approximate
Mon 08:55:00 PM 16.7870 -73.2029 143° Southeast  Level FlightAware Approximate
Mon 08:56:00 PM 16.6893 -73.1282 144° Southeast  Level FlightAware Approximate
Mon 08:57:00 PM 16.5916 -73.0536 144° Southeast  Level FlightAware Approximate
Mon 08:58:00 PM 16.4938 -72.9791 144° Southeast  Level FlightAware Approximate
Mon 08:59:00 PM 16.3960 -72.9047 144° Southeast  Level FlightAware Approximate
Mon 09:00:00 PM 16.2981 -72.8304 144° Southeast  Level FlightAware Approximate
Mon 09:01:00 PM 16.2003 -72.7561 144° Southeast  Level FlightAware Approximate
Mon 09:02:00 PM 16.1024 -72.6819 144° Southeast  Level FlightAware Approximate
Mon 09:03:00 PM 16.0045 -72.6078 144° Southeast  Level FlightAware Approximate
Mon 09:04:00 PM 15.9066 -72.5337 144° Southeast  Level FlightAware Approximate
Mon 09:05:00 PM 15.8086 -72.4597 144° Southeast  Level FlightAware Approximate
Mon 09:06:00 PM 15.7106 -72.3858 144° Southeast  Level FlightAware Approximate
Mon 09:07:00 PM 15.6126 -72.3120 144° Southeast  Level FlightAware Approximate
Mon 09:08:00 PM 15.5146 -72.2382 144° Southeast  Level FlightAware Approximate
Mon 09:09:00 PM 15.4165 -72.1645 144° Southeast  Level FlightAware Approximate
Mon 09:10:00 PM 15.3184 -72.0909 144° Southeast  Level FlightAware Approximate
Mon 09:11:00 PM 15.2203 -72.0173 144° Southeast  Level FlightAware Approximate
Mon 09:12:00 PM 15.1222 -71.9438 144° Southeast  Level FlightAware Approximate
Mon 09:13:00 PM 15.0240 -71.8704 144° Southeast  Level FlightAware Approximate
Mon 09:14:00 PM 14.9258 -71.7971 144° Southeast  Level FlightAware Approximate
Mon 09:15:00 PM 14.8276 -71.7238 144° Southeast  Level FlightAware Approximate
Mon 09:16:00 PM 14.7294 -71.6506 144° Southeast  Level FlightAware Approximate
Mon 09:17:00 PM 14.6311 -71.5774 144° Southeast  Level FlightAware Approximate
Mon 09:18:00 PM 14.5342 -71.5025 143° Southeast  Level FlightAware Approximate
Mon 09:19:00 PM 14.4368 -71.4282 145° Southeast  Level FlightAware Approximate
Mon 09:20:00 PM 14.3378 -71.3562 145° Southeast  Level FlightAware Approximate
Mon 09:21:00 PM 14.2389 -71.2842 145° Southeast  Level FlightAware Approximate
Mon 09:22:00 PM 14.1399 -71.2123 145° Southeast  Level FlightAware Approximate
Mon 09:23:00 PM 14.0349 -71.1508 154° Southeast  Level FlightAware Approximate
Mon 09:24:00 PM 13.9416 -71.0714 140° Southeast  Level FlightAware Approximate
Mon 09:25:00 PM 13.8409 -71.0026 149° Southeast  Level FlightAware Approximate
Mon 09:26:00 PM 13.7406 -70.9331 143° Southeast  Level FlightAware Approximate
Mon 09:27:00 PM 13.6444 -70.8574 143° Southeast  Level FlightAware Approximate
Mon 09:28:00 PM 13.5481 -70.7819 144° Southeast  Level FlightAware Approximate
Mon 09:29:00 PM 13.4503 -70.7084 144° Southeast  Level FlightAware Approximate
Mon 09:30:00 PM 13.3525 -70.6350 144° Southeast  Level FlightAware Approximate
Mon 09:31:00 PM 13.2547 -70.5617 144° Southeast  Level FlightAware Approximate
Mon 09:32:00 PM 13.1568 -70.4884 144° Southeast  Level FlightAware Approximate
Mon 09:33:00 PM 13.0556 -70.4204 147° Southeast  Level FlightAware Approximate
Mon 09:34:00 PM 12.9568 -70.3487 142° Southeast  Level FlightAware Approximate
Mon 09:35:00 PM 12.8613 -70.2723 142° Southeast  Level FlightAware Approximate
Mon 09:36:00 PM 12.7642 -70.1981 144° Southeast  Level FlightAware Approximate
Mon 09:37:00 PM 12.6652 -70.1268 147° Southeast  Level FlightAware Approximate
Mon 09:38:00 PM 12.5690 -70.0518 144° Southeast  Level FlightAware Approximate
Mon 09:39:00 PM 12.5000 -70.0167 154° Southeast  Level FlightAware Approximate
Mon 09:40:00 PM 12.5014 -70.0152 154° Southeast  Level Estimated
Mon 09:41:00 PM 12.5000 -70.0167 154° Southeast  Level FlightAware Approximate

Login

Don't have an account? Register now (free) for customized features, flight alerts, and more!